Time;durP1;ratioP1;P1;durP2;ratioP2;P2;SDS_P1;SDS_P2;PMS_P1;PMS_P2;Temp;Humidity;BMP_temperature;BMP_pressure;BME280_temperature;BME280_humidity;BME280_pressure;Samples;Min_cycle;Max_cycle;Signal;HPM_P1;HPM_P2
2022/05/30 00:00:46;;;;;;;10.95;1.42;;;;;;;11.12;100.00;100714.22;4783881;30;20047;-85
2022/05/30 00:03:12;;;;;;;7.63;1.42;;;;;;;11.03;100.00;100703.66;4773358;30;20036;-84
2022/05/30 00:05:44;;;;;;;11.30;1.38;;;;;;;10.92;100.00;100704.25;4781782;30;20367;-82
2022/05/30 00:08:09;;;;;;;7.93;1.33;;;;;;;10.81;100.00;100702.97;4779622;30;20039;-82
2022/05/30 00:10:46;;;;;;;9.10;1.83;;;;;;;10.80;100.00;100714.78;4777335;30;20040;-83
2022/05/30 00:13:12;;;;;;;11.75;1.67;;;;;;;10.71;100.00;100704.41;4770371;30;20113;-84
2022/05/30 00:15:38;;;;;;;9.07;1.75;;;;;;;10.64;100.00;100692.81;4757238;30;20043;-83
2022/05/30 00:18:04;;;;;;;6.78;1.30;;;;;;;10.67;100.00;100706.69;4758062;30;20048;-82
2022/05/30 00:20:30;;;;;;;8.05;1.55;;;;;;;10.49;100.00;100695.63;4728755;30;20082;-82
2022/05/30 00:22:55;;;;;;;8.57;1.55;;;;;;;10.54;100.00;100718.22;4739417;30;20052;-83
2022/05/30 00:25:21;;;;;;;6.72;1.30;;;;;;;10.50;100.00;100724.22;4753851;30;20479;-81
2022/05/30 00:27:46;;;;;;;10.15;1.60;;;;;;;10.34;100.00;100707.38;4757553;30;20050;-82
2022/05/30 00:30:13;;;;;;;15.00;1.70;;;;;;;10.32;100.00;100716.66;4757133;30;20069;-82
2022/05/30 00:32:40;;;;;;;5.22;1.25;;;;;;;10.31;100.00;100715.84;4757501;30;20164;-82
2022/05/30 00:35:06;;;;;;;8.68;1.70;;;;;;;10.19;100.00;100703.94;4758679;30;20047;-81
2022/05/30 00:37:31;;;;;;;4.75;1.10;;;;;;;10.14;100.00;100714.47;4757442;30;20051;-82
2022/05/30 00:39:57;;;;;;;8.88;1.40;;;;;;;10.03;100.00;100693.50;4773561;30;20047;-82
2022/05/30 00:42:25;;;;;;;6.82;1.20;;;;;;;10.01;100.00;100698.28;4771347;30;20035;-82
2022/05/30 00:44:51;;;;;;;8.70;1.10;;;;;;;10.13;100.00;100718.19;4774047;30;20036;-82
2022/05/30 00:47:20;;;;;;;8.45;1.65;;;;;;;9.88;100.00;100689.09;4740735;30;20035;-82
2022/05/30 00:49:47;;;;;;;10.10;1.48;;;;;;;10.04;100.00;100732.84;4758810;30;20036;-83
2022/05/30 00:52:22;;;;;;;6.43;1.55;;;;;;;9.85;100.00;100715.53;4756174;30;20087;-83
2022/05/30 00:54:48;;;;;;;8.85;1.67;;;;;;;9.90;100.00;100729.25;4769519;30;20028;-83
2022/05/30 00:57:22;;;;;;;7.30;1.40;;;;;;;9.77;100.00;100710.34;4744856;30;20522;-82
2022/05/30 00:59:51;;;;;;;;;;;;;;;9.82;100.00;100732.06;4726621;30;20037;-82
2022/05/30 01:02:19;;;;;;;6.60;1.30;;;;;;;9.65;100.00;100718.91;4742819;30;20005;-83
2022/05/30 01:07:28;;;;;;;7.35;1.30;;;;;;;9.74;100.00;100730.34;4754538;30;20075;-82
2022/05/30 01:09:55;;;;;;;6.45;1.20;;;;;;;9.72;100.00;100737.78;4754322;30;20040;-82
2022/05/30 01:12:44;;;;;;;6.65;1.33;;;;;;;9.55;100.00;100701.47;4753422;30;20046;-84
2022/05/30 01:15:17;;;;;;;5.38;1.30;;;;;;;9.68;100.00;100727.63;4747758;30;20028;-82
2022/05/30 01:17:59;;;;;;;6.10;1.25;;;;;;;9.74;100.00;100740.28;4754439;30;20036;-84
2022/05/30 01:20:54;;;;;;;10.13;1.65;;;;;;;9.59;100.00;100714.31;4756091;30;20111;-82
2022/05/30 01:23:47;;;;;;;11.82;1.92;;;;;;;9.70;100.00;100738.97;4755643;30;20038;-82
2022/05/30 01:26:15;;;;;;;8.65;1.20;;;;;;;9.63;100.00;100729.03;4752577;30;20111;-83
2022/05/30 01:28:58;;;;;;;8.63;1.60;;;;;;;9.68;100.00;100735.69;4740324;30;20036;-83
2022/05/30 01:31:24;;;;;;;4.93;1.20;;;;;;;9.58;100.00;100731.47;4750187;30;20039;-84
2022/05/30 01:33:50;;;;;;;12.20;1.70;;;;;;;9.41;100.00;100704.06;4759146;30;20486;-83
2022/05/30 01:36:15;;;;;;;8.10;1.50;;;;;;;9.58;100.00;100730.63;4756972;30;20028;-82
2022/05/30 01:38:41;;;;;;;6.80;1.60;;;;;;;9.59;100.00;100741.19;4758232;30;20040;-84
2022/05/30 01:41:07;;;;;;;8.68;1.50;;;;;;;9.51;100.00;100732.44;4775007;30;20035;-83
2022/05/30 01:43:33;;;;;;;5.20;1.42;;;;;;;9.52;100.00;100755.59;4771157;30;20101;-84
2022/05/30 01:46:07;;;;;;;7.85;1.83;;;;;;;9.51;100.00;100754.75;4756667;30;20048;-83
2022/05/30 01:48:32;;;;;;;3.85;1.25;;;;;;;9.41;100.00;100744.34;4740968;30;20071;-82
2022/05/30 01:50:59;;;;;;;7.05;1.63;;;;;;;9.40;100.00;100744.53;4752376;30;20040;-83
2022/05/30 01:53:26;;;;;;;7.03;1.88;;;;;;;9.50;100.00;100758.44;4757527;30;20083;-83
2022/05/30 01:55:51;;;;;;;8.80;1.33;;;;;;;9.49;100.00;100762.16;4761100;30;20161;-84
2022/05/30 01:58:17;;;;;;;7.43;1.30;;;;;;;9.48;100.00;100765.06;4768266;30;20348;-83
2022/05/30 02:00:42;;;;;;;6.60;1.38;;;;;;;9.42;100.00;100747.84;4757290;30;20028;-83
2022/05/30 02:03:08;;;;;;;9.02;1.30;;;;;;;9.43;100.00;100756.75;4756686;30;20048;-83
2022/05/30 02:05:33;;;;;;;10.38;1.40;;;;;;;9.48;100.00;100765.06;4756789;30;20032;-83
2022/05/30 02:07:59;;;;;;;10.45;1.40;;;;;;;9.20;100.00;100724.72;4758979;30;20040;-83
2022/05/30 02:10:25;;;;;;;10.65;1.52;;;;;;;9.53;100.00;100776.03;4757135;30;20455;-83
2022/05/30 02:12:51;;;;;;;6.15;1.23;;;;;;;9.50;100.00;100771.06;4756215;30;20040;-83
2022/05/30 02:15:16;;;;;;;9.90;1.58;;;;;;;9.56;100.00;100779.16;4757126;30;20043;-83
2022/05/30 02:17:41;;;;;;;12.32;1.60;;;;;;;9.38;100.00;100746.59;4757179;30;20036;-84
2022/05/30 02:20:08;;;;;;;9.63;1.60;;;;;;;9.26;100.00;100740.06;4752262;30;20064;-84
2022/05/30 02:22:33;;;;;;;6.30;1.20;;;;;;;9.56;100.00;100781.84;4742395;30;20036;-84
2022/05/30 02:24:59;;;;;;;7.93;1.70;;;;;;;9.19;100.00;100729.25;4756389;30;20028;-81
2022/05/30 02:27:24;;;;;;;6.93;1.70;;;;;;;9.53;100.00;100784.09;4757379;30;20032;-85
2022/05/30 02:29:52;;;;;;;11.52;1.92;;;;;;;9.39;100.00;100762.50;4754083;30;20028;-84
2022/05/30 02:32:17;;;;;;;11.65;1.60;;;;;;;9.56;100.00;100797.97;4715871;30;20033;-83
2022/05/30 02:37:27;;;;;;;4.90;1.25;;;;;;;9.56;100.00;100800.66;4739690;30;20434;-83
2022/05/30 02:39:52;;;;;;;6.05;1.42;;;;;;;9.33;100.00;100765.94;4754138;30;20099;-83
2022/05/30 02:42:18;;;;;;;5.10;1.00;;;;;;;9.41;100.00;100778.44;4741040;30;20037;-82
2022/05/30 02:44:44;;;;;;;8.15;1.27;;;;;;;9.53;100.00;100800.22;4724598;30;20033;-82
2022/05/30 02:47:09;;;;;;;9.05;1.15;;;;;;;9.61;100.00;100800.94;4747613;30;20036;-83
2022/05/30 02:49:35;;;;;;;10.68;1.60;;;;;;;9.64;100.00;100788.97;4726836;30;20043;-83
2022/05/30 02:52:02;;;;;;;7.05;1.40;;;;;;;9.72;100.00;100799.56;4759484;30;20357;-83
2022/05/30 02:54:28;;;;;;;7.93;1.40;;;;;;;9.55;100.00;100772.16;4754772;30;20047;-83
2022/05/30 02:56:56;;;;;;;6.30;1.27;;;;;;;9.59;100.00;100786.84;4764275;30;20040;-83
2022/05/30 02:59:21;;;;;;;7.78;1.60;;;;;;;9.72;100.00;100802.25;4759220;30;20032;-83
2022/05/30 03:01:47;;;;;;;7.32;1.48;;;;;;;9.75;100.00;100801.88;4772521;30;20101;-83
2022/05/30 03:04:14;;;;;;;5.82;1.42;;;;;;;9.74;100.00;100802.91;4757066;30;20040;-82
2022/05/30 03:06:40;;;;;;;8.50;1.60;;;;;;;9.63;100.00;100777.41;4757286;30;20100;-83
2022/05/30 03:09:05;;;;;;;9.05;1.67;;;;;;;9.82;100.00;100810.81;4756936;30;20100;-83
2022/05/30 03:11:32;;;;;;;8.27;1.40;;;;;;;9.82;100.00;100801.94;4756649;30;20047;-84
2022/05/30 03:13:58;;;;;;;5.80;1.55;;;;;;;9.83;100.00;100812.50;4756200;30;20055;-83
2022/05/30 03:16:23;;;;;;;7.68;1.55;;;;;;;9.79;100.00;100803.13;4757501;30;20028;-84
2022/05/30 03:18:49;;;;;;;7.35;1.20;;;;;;;9.73;100.00;100795.84;4752773;30;20037;-83
2022/05/30 03:21:15;;;;;;;8.90;1.27;;;;;;;9.78;100.00;100797.97;4738853;30;20067;-82
2022/05/30 03:23:41;;;;;;;6.65;1.25;;;;;;;9.85;100.00;100810.44;4761478;30;20036;-82
2022/05/30 03:26:07;;;;;;;5.55;1.33;;;;;;;9.83;100.00;100806.25;4740793;30;20386;-83
2022/05/30 03:28:34;;;;;;;7.22;1.55;;;;;;;9.87;100.00;100815.63;4728075;30;20032;-83
2022/05/30 03:31:00;;;;;;;9.63;1.60;;;;;;;9.89;100.00;100819.75;4760194;30;20120;-84
2022/05/30 03:33:25;;;;;;;10.55;1.48;;;;;;;9.85;100.00;100801.53;4757765;30;20039;-82
2022/05/30 03:35:51;;;;;;;10.23;1.60;;;;;;;10.05;100.00;100829.41;4761129;30;20039;-82
2022/05/30 03:38:16;;;;;;;8.45;1.65;;;;;;;10.11;100.00;100830.50;4763671;30;20259;-83
2022/05/30 03:40:44;;;;;;;5.93;1.15;;;;;;;9.91;100.00;100790.00;4760574;30;20043;-83
2022/05/30 03:43:11;;;;;;;9.25;1.60;;;;;;;10.23;100.00;100834.31;4760190;30;20036;-84
2022/05/30 03:45:39;;;;;;;7.25;1.52;;;;;;;10.15;100.00;100826.38;4773822;30;20032;-83
2022/05/30 03:48:04;;;;;;;11.48;1.63;;;;;;;10.15;100.00;100820.19;4760358;30;20024;-83
2022/05/30 03:50:30;;;;;;;9.30;1.63;;;;;;;10.30;100.00;100843.28;4745486;30;20040;-83
2022/05/30 03:53:05;;;;;;;9.80;1.75;;;;;;;10.32;100.00;100835.84;4772100;30;20134;-84
2022/05/30 03:55:34;;;;;;;7.30;1.50;;;;;;;10.48;100.00;100850.84;4756664;30;20036;-83
2022/05/30 03:58:03;;;;;;;8.98;1.63;;;;;;;10.46;100.00;100830.53;4740424;30;20697;-83
2022/05/30 04:00:32;;;;;;;10.20;1.50;;;;;;;10.71;100.00;100850.56;4742260;30;20048;-83
2022/05/30 04:02:59;;;;;;;12.18;1.83;;;;;;;10.81;100.00;100848.34;4759515;30;20044;-83
2022/05/30 04:05:25;;;;;;;10.18;1.52;;;;;;;10.86;100.00;100842.38;4765367;30;20051;-84
2022/05/30 04:07:51;;;;;;;9.40;1.30;;;;;;;10.99;100.00;100852.34;4762477;30;20456;-83
2022/05/30 04:10:16;;;;;;;8.30;1.63;;;;;;;10.81;100.00;100813.34;4742751;30;20051;-83
2022/05/30 04:12:43;;;;;;;7.18;1.65;;;;;;;11.11;100.00;100850.75;4757381;30;20043;-83
2022/05/30 04:15:15;;;;;;;10.73;1.67;;;;;;;11.23;100.00;100859.91;4764859;30;20039;-82
2022/05/30 04:17:40;;;;;;;8.65;1.50;;;;;;;11.24;100.00;100837.31;4764436;30;20479;-83
2022/05/30 04:20:06;;;;;;;11.18;1.60;;;;;;;11.44;100.00;100858.09;4745719;30;20058;-83
2022/05/30 04:22:33;;;;;;;8.95;1.50;;;;;;;11.53;100.00;100856.88;4762671;30;20078;-83
2022/05/30 04:24:58;;;;;;;9.52;1.88;;;;;;;11.56;100.00;100851.09;4761561;30;20043;-82
2022/05/30 04:27:24;;;;;;;9.57;1.90;;;;;;;11.70;100.00;100860.03;4741638;30;20028;-83
2022/05/30 04:29:49;;;;;;;14.00;1.98;;;;;;;11.70;100.00;100857.34;4731312;30;20116;-83
2022/05/30 04:32:16;;;;;;;8.43;1.60;;;;;;;11.75;100.00;100857.53;4746485;30;20036;-82
2022/05/30 04:34:42;;;;;;;8.70;1.60;;;;;;;11.81;100.00;100855.88;4765514;30;20493;-82
2022/05/30 04:37:08;;;;;;;8.38;1.63;;;;;;;11.95;100.00;100863.81;4743751;30;20032;-83
2022/05/30 04:39:34;;;;;;;9.95;1.77;;;;;;;12.03;100.00;100872.75;4750132;30;20052;-82
2022/05/30 04:41:59;;;;;;;7.70;1.65;;;;;;;12.03;100.00;100862.78;4753922;30;20032;-81
2022/05/30 04:44:25;;;;;;;11.38;1.50;;;;;;;12.11;100.00;100873.34;4756040;30;20039;-81
2022/05/30 04:46:52;;;;;;;9.50;1.77;;;;;;;12.12;100.00;100869.63;4740954;30;20047;-78
2022/05/30 04:49:17;;;;;;;7.72;1.40;;;;;;;12.16;100.00;100868.19;4759540;30;20494;-80
2022/05/30 04:51:43;;;;;;;13.40;1.73;;;;;;;12.27;100.00;100868.59;4740020;30;20080;-80
2022/05/30 04:54:08;;;;;;;9.63;1.85;;;;;;;12.43;100.00;100895.13;4738186;30;20036;-80
2022/05/30 04:56:33;;;;;;;8.68;1.40;;;;;;;12.47;100.00;100896.38;4751469;30;20036;-80
2022/05/30 04:58:59;;;;;;;6.20;1.45;;;;;;;12.50;100.00;100885.16;4738966;30;20032;-81
2022/05/30 05:01:25;;;;;;;9.90;1.50;;;;;;;12.55;100.00;100869.19;4737155;30;20125;-80
2022/05/30 05:03:50;;;;;;;7.80;1.60;;;;;;;12.70;100.00;100891.34;4752131;30;20069;-80
2022/05/30 05:06:19;;;;;;;11.30;1.60;;;;;;;12.74;100.00;100893.63;4736969;30;20379;-80
2022/05/30 05:08:51;;;;;;;8.93;1.63;;;;;;;12.90;100.00;100904.81;4736387;30;20040;-79
2022/05/30 05:11:30;;;;;;;7.68;1.20;;;;;;;12.98;100.00;100897.50;4735964;30;20024;-79
2022/05/30 05:13:56;;;;;;;9.57;1.48;;;;;;;12.85;100.00;100874.09;4741652;30;20048;-80
2022/05/30 05:16:25;;;;;;;9.25;1.85;;;;;;;13.05;100.00;100911.84;4756401;30;20062;-80
2022/05/30 05:18:51;;;;;;;9.95;1.60;;;;;;;13.07;100.00;100891.66;4768178;30;20028;-81
2022/05/30 05:21:24;;;;;;;8.48;1.75;;;;;;;13.25;100.00;100914.50;4742978;30;20464;-80
2022/05/30 05:23:50;;;;;;;6.40;1.52;;;;;;;13.30;100.00;100911.97;4734364;30;20037;-80
2022/05/30 05:26:17;;;;;;;9.23;1.40;;;;;;;13.37;100.00;100910.06;4742753;30;20185;-80
2022/05/30 05:28:43;;;;;;;7.60;1.27;;;;;;;13.43;100.00;100914.63;4751059;30;20482;-81
2022/05/30 05:31:11;;;;;;;6.72;1.67;;;;;;;13.42;100.00;100918.38;4738500;30;20025;-81
2022/05/30 05:33:37;;;;;;;6.80;1.67;;;;;;;13.45;100.00;100915.25;4755897;30;20040;-83
2022/05/30 05:36:03;;;;;;;7.28;1.25;;;;;;;13.59;100.00;100927.66;4737413;30;20063;-80
2022/05/30 05:38:28;;;;;;;7.28;1.75;;;;;;;13.65;100.00;100925.13;4744425;30;20050;-82
2022/05/30 05:40:54;;;;;;;6.88;1.42;;;;;;;13.62;100.00;100924.50;4753975;30;20483;-81
2022/05/30 05:43:19;;;;;;;6.95;1.40;;;;;;;13.55;100.00;100904.78;4754925;30;20087;-83
2022/05/30 05:45:46;;;;;;;9.45;1.52;;;;;;;13.75;100.00;100933.59;4756793;30;20128;-83
2022/05/30 05:48:13;;;;;;;6.18;1.48;;;;;;;13.79;100.00;100935.66;4751376;30;20039;-83
2022/05/30 05:50:43;;;;;;;7.55;1.50;;;;;;;13.89;100.00;100929.75;4744673;30;20038;-82
2022/05/30 05:53:10;;;;;;;4.75;1.00;;;;;;;13.61;100.00;100879.59;4755060;30;20076;-84
2022/05/30 05:55:36;;;;;;;9.40;1.27;;;;;;;13.96;100.00;100938.66;4755384;30;20484;-83
2022/05/30 05:58:02;;;;;;;6.70;1.20;;;;;;;13.98;100.00;100939.28;4756551;30;20126;-83
2022/05/30 06:00:31;;;;;;;9.10;1.30;;;;;;;13.97;100.00;100924.09;4755175;30;20050;-82
2022/05/30 06:02:57;;;;;;;5.75;1.20;;;;;;;14.21;100.00;100940.59;4762688;30;20047;-82
2022/05/30 06:05:22;;;;;;;9.38;1.52;;;;;;;14.07;100.00;100902.81;4767776;30;20032;-83
2022/05/30 06:07:48;;;;;;;6.68;1.17;;;;;;;14.22;100.00;100921.41;4722593;30;20037;-83
2022/05/30 06:10:14;;;;;;;8.45;1.13;;;;;;;14.28;100.00;100911.59;4737682;30;20104;-83
2022/05/30 06:12:43;;;;;;;5.80;1.17;;;;;;;14.48;100.00;100944.72;4738341;30;20033;-84
2022/05/30 06:15:12;;;;;;;7.38;1.63;;;;;;;14.63;100.00;100954.41;4750802;30;20527;-84
2022/05/30 06:17:42;;;;;;;10.15;1.67;;;;;;;14.70;100.00;100953.31;4754115;30;20044;-81
2022/05/30 06:20:11;;;;;;;3.97;0.90;;;;;;;14.84;100.00;100964.03;4750065;30;20044;-83
2022/05/30 06:22:37;;;;;;;5.70;1.25;;;;;;;14.89;100.00;100961.47;4754982;30;20044;-80
2022/05/30 06:25:03;;;;;;;10.23;1.40;;;;;;;15.00;100.00;100963.44;4756046;30;20626;-84
2022/05/30 06:27:28;;;;;;;11.18;1.60;;;;;;;15.06;100.00;100967.94;4760464;30;20036;-85
2022/05/30 06:29:53;;;;;;;6.53;1.33;;;;;;;15.15;100.00;100961.19;4762549;30;20070;-85
2022/05/30 06:32:19;;;;;;;4.85;1.00;;;;;;;15.09;100.00;100958.53;4743486;30;20341;-85
2022/05/30 06:34:54;;;;;;;8.32;1.70;;;;;;;14.90;100.00;100926.03;4755514;30;20032;-85
2022/05/30 06:37:22;;;;;;;4.30;0.93;;;;;;;15.15;100.00;100969.31;4908309;24;20052;-84
2022/05/30 06:39:51;;;;;;;5.25;0.95;;;;;;;15.18;100.00;100968.03;4770675;30;20047;-82
2022/05/30 06:42:16;;;;;;;5.72;1.20;;;;;;;14.60;100.00;100870.91;4786765;29;20028;-84
2022/05/30 06:44:42;;;;;;;5.30;1.00;;;;;;;15.17;100.00;100944.72;4774447;30;20090;-82
2022/05/30 06:47:08;;;;;;;7.55;1.20;;;;;;;14.31;100.00;100813.69;4770285;30;20035;-83
2022/05/30 06:49:34;;;;;;;10.15;1.40;;;;;;;14.78;100.00;100922.41;4768846;30;20031;-81
2022/05/30 06:51:59;;;;;;;8.82;1.27;;;;;;;14.85;100.00;100942.13;4763979;30;20071;-81
2022/05/30 06:54:25;;;;;;;5.00;1.55;;;;;;;15.02;100.00;100962.16;4768952;30;20036;-81
2022/05/30 06:59:37;;;;;;;9.23;1.33;;;;;;;15.04;100.00;100989.88;4768744;30;20047;-81
2022/05/30 07:02:05;;;;;;;5.68;1.00;;;;;;;15.11;100.00;100987.09;4769580;30;20447;-83
2022/05/30 07:04:32;;;;;;;5.78;1.17;;;;;;;15.31;100.00;101007.75;4780088;30;20065;-83
2022/05/30 07:06:58;;;;;;;7.60;1.40;;;;;;;15.43;100.00;101005.91;4766454;30;20132;-82
2022/05/30 07:09:23;;;;;;;7.47;1.45;;;;;;;15.61;100.00;101002.38;4771881;30;20483;-82
2022/05/30 07:12:09;;;;;;;6.93;1.25;;;;;;;15.81;100.00;101013.84;4763423;30;20115;-80
2022/05/30 07:14:38;;;;;;;7.13;1.33;;;;;;;15.99;100.00;101004.81;4753751;30;20040;-80
2022/05/30 07:17:04;;;;;;;7.10;1.35;;;;;;;16.23;100.00;101011.19;4778920;30;20049;-78
2022/05/30 07:19:30;;;;;;;4.05;1.00;;;;;;;16.46;98.36;101013.13;4755052;30;20040;-80
2022/05/30 07:21:57;;;;;;;7.32;1.65;;;;;;;16.76;96.37;100996.78;4783555;30;20040;-80
2022/05/30 07:24:23;;;;;;;8.50;1.40;;;;;;;17.04;94.25;100993.34;4764917;30;20085;-80
2022/05/30 07:26:48;;;;;;;8.93;1.30;;;;;;;17.29;92.87;101003.97;4756659;30;20063;-79
2022/05/30 07:29:13;;;;;;;4.68;1.10;;;;;;;17.51;91.62;101006.03;4771985;30;20059;-79
2022/05/30 07:31:39;;;;;;;7.13;1.70;;;;;;;17.42;90.76;100983.00;4754413;30;20032;-79
2022/05/30 07:34:04;;;;;;;7.88;1.10;;;;;;;17.42;90.13;101008.31;4772388;30;20043;-79
2022/05/30 07:36:31;;;;;;;7.78;1.38;;;;;;;17.38;89.61;101007.13;4786377;29;20035;-79
2022/05/30 07:38:57;;;;;;;4.95;1.52;;;;;;;17.38;89.22;101012.56;4772661;30;20040;-79
2022/05/30 07:41:24;;;;;;;14.90;2.10;;;;;;;17.55;88.64;101007.22;4773006;30;20044;-79
2022/05/30 07:43:50;;;;;;;8.77;1.30;;;;;;;17.92;87.11;101007.72;4771081;30;20166;-79
2022/05/30 07:46:17;;;;;;;5.25;1.02;;;;;;;18.01;86.75;101019.03;4773901;30;20071;-79
2022/05/30 07:48:43;;;;;;;9.80;1.58;;;;;;;17.93;86.73;101008.56;4773169;30;20043;-79
2022/05/30 07:51:10;;;;;;;6.97;1.17;;;;;;;18.09;85.84;101010.50;4762600;30;20150;-79
2022/05/30 07:53:37;;;;;;;7.78;1.40;;;;;;;18.17;84.30;101004.63;4773101;30;20032;-79
2022/05/30 07:56:12;;;;;;;5.47;1.38;;;;;;;18.33;83.85;101004.94;4767942;30;20040;-79
2022/05/30 07:58:37;;;;;;;5.88;1.40;;;;;;;18.20;83.25;100995.97;4756834;30;20046;-79
2022/05/30 08:01:04;;;;;;;6.03;1.20;;;;;;;18.35;83.81;101013.69;4760909;30;20028;-79
2022/05/30 08:03:30;;;;;;;5.03;1.20;;;;;;;17.98;80.07;101008.63;4760443;30;20390;-79
2022/05/30 08:06:07;;;;;;;7.70;1.38;;;;;;;17.36;82.32;100982.91;4740408;30;20135;-78
2022/05/30 08:08:32;;;;;;;7.15;1.60;;;;;;;17.64;83.15;101013.94;4770294;30;20039;-80
2022/05/30 08:10:58;;;;;;;4.70;1.02;;;;;;;17.76;83.57;101014.75;4777508;30;20443;-80
2022/05/30 08:13:23;;;;;;;6.68;1.40;;;;;;;17.76;81.37;101017.50;4770345;30;20042;-78
2022/05/30 08:15:49;;;;;;;5.55;1.40;;;;;;;17.78;82.99;101020.81;4772431;30;20139;-79
2022/05/30 08:18:17;;;;;;;7.15;1.45;;;;;;;18.05;82.04;101029.22;4772708;30;20040;-79
2022/05/30 08:20:44;;;;;;;8.45;1.85;;;;;;;18.09;81.40;101024.13;4770828;30;20091;-80
2022/05/30 08:23:12;;;;;;;3.60;1.20;;;;;;;17.75;82.50;101018.53;4773103;30;20478;-79
2022/05/30 08:25:38;;;;;;;5.55;1.20;;;;;;;17.43;84.59;101029.00;4768378;30;20421;-79
2022/05/30 08:28:05;;;;;;;5.78;1.23;;;;;;;17.02;87.19;101032.69;4756611;30;20047;-79
2022/05/30 08:30:30;;;;;;;7.20;1.42;;;;;;;16.45;89.11;101031.28;4756075;30;20056;-78
2022/05/30 08:32:56;;;;;;;3.92;1.02;;;;;;;16.21;90.22;101022.25;4758279;30;20028;-78
2022/05/30 08:35:22;;;;;;;8.15;1.30;;;;;;;15.90;92.58;101015.19;4755408;30;20051;-79
2022/05/30 08:37:48;;;;;;;6.78;1.40;;;;;;;15.87;94.49;101031.91;4754376;30;20124;-79
2022/05/30 08:43:34;;;;;;;10.05;1.45;;;;;;;15.56;96.86;101029.34;4771643;30;20414;-79
2022/05/30 08:46:21;;;;;;;8.73;1.45;;;;;;;15.58;99.96;101044.34;4787400;29;20123;-79
2022/05/30 08:49:02;;;;;;;6.35;1.38;;;;;;;15.87;98.43;101040.06;4771197;30;20443;-79
2022/05/30 08:52:05;;;;;;;7.13;1.13;;;;;;;15.72;98.68;101047.75;4759713;30;20028;-79
2022/05/30 08:54:54;;;;;;;4.57;1.42;;;;;;;15.46;98.15;101044.28;4753404;30;20086;-79
2022/05/30 08:57:39;;;;;;;6.63;1.48;;;;;;;15.34;97.73;101046.06;4756313;30;20063;-78
2022/05/30 09:00:33;;;;;;;;;;;;;;;15.27;97.88;101048.03;4753537;30;20490;-79
2022/05/30 09:03:38;;;;;;;6.38;1.60;;;;;;;15.19;98.90;101054.53;4752484;30;19918;-79
2022/05/30 09:06:10;;;;;;;5.60;1.35;;;;;;;15.11;100.00;101051.31;4757486;30;20059;-79
2022/05/30 09:08:50;;;;;;;4.97;1.67;;;;;;;15.15;100.00;101058.75;4772967;30;20024;-79
2022/05/30 09:11:24;;;;;;;5.90;1.60;;;;;;;15.13;100.00;101051.91;4769311;30;20036;-79
2022/05/30 09:13:53;;;;;;;6.25;1.65;;;;;;;15.14;100.00;101040.84;4768477;30;20115;-79
2022/05/30 09:16:31;;;;;;;4.97;1.40;;;;;;;15.08;100.00;101046.34;4771792;30;20035;-79
2022/05/30 09:18:59;;;;;;;6.43;1.55;;;;;;;15.23;100.00;101049.50;4768613;30;20036;-79
2022/05/30 09:21:31;;;;;;;6.55;1.65;;;;;;;15.29;100.00;101056.75;4780081;30;20032;-78
2022/05/30 09:23:56;;;;;;;3.90;1.38;;;;;;;15.39;100.00;101059.75;4765931;30;20035;-79
2022/05/30 09:26:28;;;;;;;6.32;1.50;;;;;;;15.57;100.00;101061.69;4777467;30;20363;-80
2022/05/30 09:28:56;;;;;;;7.85;1.35;;;;;;;15.43;100.00;101055.56;4765579;30;20194;-80
2022/05/30 09:31:24;;;;;;;6.95;1.52;;;;;;;15.58;100.00;101059.78;4763515;30;20097;-79
2022/05/30 09:33:58;;;;;;;6.40;1.35;;;;;;;15.45;100.00;101045.31;4763983;30;20046;-79
2022/05/30 09:36:31;;;;;;;7.43;1.40;;;;;;;15.38;100.00;101051.88;4764956;30;20051;-78
2022/05/30 09:39:03;;;;;;;5.60;1.30;;;;;;;15.41;100.00;101057.66;4763164;30;20387;-81
2022/05/30 09:41:37;;;;;;;7.40;1.52;;;;;;;15.78;100.00;101057.69;4764039;30;20047;-80
2022/05/30 09:44:07;;;;;;;7.15;1.33;;;;;;;15.79;100.00;101064.78;4766579;30;20040;-80
2022/05/30 09:46:43;;;;;;;7.80;1.42;;;;;;;15.76;100.00;101065.25;4775169;30;20032;-80
2022/05/30 09:49:17;;;;;;;5.03;1.58;;;;;;;15.48;100.00;101061.13;4765452;30;20055;-79
2022/05/30 09:51:45;;;;;;;;;;;;;;;15.18;100.00;101063.75;4764103;30;20028;-82
2022/05/30 09:54:32;;;;;;;7.32;1.60;;;;;;;14.86;100.00;101059.44;4765936;30;19914;-81
2022/05/30 09:57:04;;;;;;;10.10;1.30;;;;;;;14.66;100.00;101052.31;4762048;30;20663;-79
2022/05/30 09:59:39;;;;;;;5.78;1.25;;;;;;;14.82;100.00;101074.50;4765562;30;20040;-81
2022/05/30 10:02:24;;;;;;;6.15;1.23;;;;;;;14.80;100.00;101083.66;4756288;30;20039;-81
2022/05/30 10:05:00;;;;;;;6.22;1.30;;;;;;;14.72;100.00;101080.41;4757750;30;20075;-80
2022/05/30 10:07:27;;;;;;;8.20;1.60;;;;;;;14.55;100.00;101075.50;4762475;30;20040;-81
2022/05/30 10:09:57;;;;;;;5.25;1.48;;;;;;;14.44;100.00;101065.34;4749121;30;20040;-81
2022/05/30 10:13:02;;;;;;;6.28;1.27;;;;;;;14.47;100.00;101070.34;4773599;29;20135;-80
2022/05/30 10:15:37;;;;;;;10.20;1.67;;;;;;;14.55;100.00;101063.84;4765498;30;20032;-80
2022/05/30 10:18:17;;;;;;;6.75;1.77;;;;;;;14.54;100.00;101062.19;4764051;30;20052;-79
2022/05/30 10:21:13;;;;;;;8.35;1.40;;;;;;;14.68;100.00;101069.16;4764471;30;20028;-80
2022/05/30 10:30:08;;;;;;;6.95;1.40;;;;;;;15.12;100.00;101064.63;4766348;30;20103;-81
2022/05/30 10:32:49;;;;;;;6.72;1.58;;;;;;;15.13;100.00;101073.59;4782353;30;20040;-82
2022/05/30 10:35:46;;;;;;;5.22;1.40;;;;;;;15.38;100.00;101070.84;4770930;30;20035;-81
2022/05/30 10:38:50;;;;;;;6.57;1.20;;;;;;;15.71;100.00;101056.97;4770407;30;20055;-81
2022/05/30 10:41:24;;;;;;;4.47;1.20;;;;;;;15.79;100.00;101064.78;4763813;30;20097;-81
2022/05/30 10:44:09;;;;;;;6.57;1.52;;;;;;;15.73;100.00;101074.66;4773698;30;20036;-81
2022/05/30 10:47:05;;;;;;;6.25;1.20;;;;;;;15.54;100.00;101072.16;4767418;30;20071;-81
2022/05/30 10:49:46;;;;;;;5.50;1.13;;;;;;;15.11;100.00;101062.16;4808056;29;20030;-83
2022/05/30 10:52:24;;;;;;;4.47;1.30;;;;;;;15.14;100.00;101072.56;4776499;29;20032;-82
2022/05/30 10:54:57;;;;;;;4.97;1.20;;;;;;;14.99;100.00;101075.59;4769578;30;20092;-82
2022/05/30 10:57:39;;;;;;;7.30;1.60;;;;;;;14.92;100.00;101080.25;4776881;30;20451;-81
2022/05/30 11:00:15;;;;;;;6.05;1.80;;;;;;;14.68;100.00;101096.25;4768499;30;20040;-83
2022/05/30 11:02:54;;;;;;;9.27;1.38;;;;;;;14.46;100.00;101095.72;4769339;30;20085;-81
2022/05/30 11:05:41;;;;;;;4.97;1.38;;;;;;;14.33;100.00;101103.94;4764867;30;20039;-81
2022/05/30 11:08:21;;;;;;;5.82;1.80;;;;;;;14.39;100.00;101103.06;4766288;30;20039;-80
2022/05/30 11:10:56;;;;;;;5.65;1.40;;;;;;;14.73;100.00;101072.03;4765200;30;20055;-80
2022/05/30 11:13:37;;;;;;;8.00;2.10;;;;;;;15.12;100.00;101090.91;4765131;30;20050;-80
2022/05/30 11:16:32;;;;;;;7.47;1.50;;;;;;;15.28;100.00;101102.00;4764168;30;20047;-80
2022/05/30 11:19:13;;;;;;;7.43;1.48;;;;;;;15.03;100.00;101082.22;4760833;30;21199;-79
2022/05/30 11:21:54;;;;;;;7.30;1.60;;;;;;;14.91;100.00;101095.66;4763093;30;20035;-80
2022/05/30 11:24:19;;;;;;;5.70;1.60;;;;;;;14.67;100.00;101077.50;4764720;30;20032;-80
2022/05/30 11:27:03;;;;;;;7.63;1.55;;;;;;;14.83;100.00;101089.69;4766064;30;20050;-80
2022/05/30 11:29:46;;;;;;;8.93;1.60;;;;;;;14.90;100.00;101072.34;4779917;30;20039;-79
2022/05/30 11:32:30;;;;;;;12.80;1.83;;;;;;;14.84;100.00;101077.81;4764983;30;20043;-80
2022/05/30 11:35:24;;;;;;;7.90;1.60;;;;;;;14.62;100.00;101077.34;4766252;30;20071;-79
2022/05/30 11:38:17;;;;;;;7.70;1.70;;;;;;;14.52;100.00;101057.00;4760684;30;20087;-80
2022/05/30 11:40:51;;;;;;;8.00;2.20;;;;;;;14.63;100.00;101081.69;4767281;30;20050;-80
2022/05/30 11:43:17;;;;;;;5.82;1.80;;;;;;;14.74;100.00;101079.13;4770778;30;20049;-80
2022/05/30 11:46:02;;;;;;;4.72;1.33;;;;;;;14.77;100.00;101067.84;4769986;30;20039;-80
2022/05/30 11:48:55;;;;;;;8.07;1.52;;;;;;;15.07;100.00;101077.22;4765220;30;20040;-80
2022/05/30 11:51:35;;;;;;;6.63;1.75;;;;;;;15.27;100.00;101072.44;4766521;30;20093;-81